メインページ
METAR-TAF:

METAR-TAF

空港 :

Chapleau, オンタリオ州, カナダ

緯度: 47-49N, 経度: 083-21W, 海抜: 447m

現時点の気象観測

当レポートは38分前の17:00(UTC)に作成
北西の風 8kt、西から北/北東の間で変化する
気温 20°C
湿度 56%
気圧 1015 hPa
視程: 24.1km
高度3800ftの雲はほとんどない
高度6000ftの千切れ雲あり

METAR: CYLD 211700Z 31008KT 280V030 15SM FEW038 BKN060 20/11 A2998 RMK CU2SC3 SLP157 DENSITY ALT 2400FT

時間: 13:38 (17:38 UTC)

予報

当レポートは4時間0分前の13:38(UTC)に作成
予報は21日の 14時(UTC)から 22日の 01時(UTC)まで有効
北/北西の風 5kt
視程: 10km
高度2000ftの曇り
21日の 14時(UTC)から 21日の 16時(UTC)まで一時的に
高度800ftの雲は散在している
高度3000ftの千切れ雲あり
21日の 1600時(UTC)から
の風 8kt
視程: 10km
高度4000ftの千切れ雲あり

TAF: CYLD 211338Z 2114/2201 34005KT P6SM OVC020 TEMPO 2114/2116 SCT008 BKN030 FM211600 35008KT P6SM BKN040 RMK NXT FCST BY 212000Z

4,000以上の空港の気象観測と天気予報(METAR報とTAF報)

利用可能な観測所は地図上に黄色い丸と赤い丸で示す。

丸の上にカーソルを重ねると観測所名を参照できる。

次にクリックすると気象観測と天気予報を参照できる。

マップの切り替え:黒色「×」印の緑ボタンをクリックして拡大、「-」印の緑ボタンをクリックして縮小、緑色の三角印をクリックして隣りの地図に切り替え


METAR-TAF: